createdAt,value
2023-03-17T00:01:18.431Z,43.34
2023-03-17T00:03:44.921Z,43.05
2023-03-17T00:06:12.262Z,42.90
2023-03-17T00:08:39.699Z,43.13
2023-03-17T00:11:06.996Z,43.19
2023-03-17T00:13:34.266Z,42.92
2023-03-17T00:16:01.719Z,43.25
2023-03-17T00:18:28.323Z,43.42
2023-03-17T00:20:54.737Z,43.14
2023-03-17T00:23:21.208Z,43.32
2023-03-17T00:25:47.718Z,43.63
2023-03-17T00:28:14.139Z,43.58
2023-03-17T00:30:42.434Z,43.35
2023-03-17T00:35:54.899Z,42.83
2023-03-17T00:38:22.177Z,43.63
2023-03-17T00:40:49.450Z,43.20
2023-03-17T00:43:16.723Z,43.01
2023-03-17T00:45:44.003Z,43.58
2023-03-17T00:51:05.095Z,43.92
2023-03-17T00:53:31.580Z,43.40
2023-03-17T00:55:58.843Z,43.54
2023-03-17T00:58:25.249Z,43.32
2023-03-17T01:00:51.750Z,43.59
2023-03-17T01:06:04.829Z,43.34
2023-03-17T01:08:32.222Z,43.98
2023-03-17T01:10:58.654Z,43.49
2023-03-17T01:13:25.938Z,43.80
2023-03-17T01:15:53.287Z,43.65
2023-03-17T01:21:14.637Z,43.72
2023-03-17T01:23:41.982Z,44.41
2023-03-17T01:26:09.292Z,43.45
2023-03-17T01:28:36.609Z,44.31
2023-03-17T01:31:04.022Z,43.28
2023-03-17T01:36:15.653Z,43.44
2023-03-17T01:38:42.106Z,43.89
2023-03-17T01:41:08.630Z,43.58
2023-03-17T01:43:35.081Z,45.11
2023-03-17T01:46:02.524Z,44.33
2023-03-17T01:51:25.032Z,43.98
2023-03-17T01:53:51.452Z,43.45
2023-03-17T01:56:18.851Z,44.56
2023-03-17T01:58:45.294Z,45.49
2023-03-17T02:01:12.718Z,43.88
2023-03-17T02:06:35.805Z,45.13
2023-03-17T02:09:04.389Z,44.11
2023-03-17T02:11:31.798Z,44.02
2023-03-17T02:13:59.178Z,44.58
2023-03-17T02:16:26.547Z,44.25
2023-03-17T02:21:38.657Z,43.52
2023-03-17T02:24:05.118Z,44.25
2023-03-17T02:26:31.553Z,45.12
2023-03-17T02:28:58.798Z,44.20
2023-03-17T02:31:26.170Z,44.32
2023-03-17T02:36:48.385Z,44.19
2023-03-17T02:39:15.752Z,44.01
2023-03-17T02:41:43.079Z,44.04
2023-03-17T02:44:09.545Z,43.82
2023-03-17T02:46:36.881Z,44.51
2023-03-17T02:51:48.356Z,43.63
2023-03-17T02:54:14.799Z,44.10
2023-03-17T02:56:42.046Z,44.16
2023-03-17T02:59:08.482Z,43.94
2023-03-17T03:01:35.781Z,43.91
2023-03-17T03:06:58.772Z,44.18
2023-03-17T03:09:26.170Z,43.63
2023-03-17T03:11:52.618Z,43.65
2023-03-17T03:14:19.941Z,43.91
2023-03-17T03:16:46.394Z,43.97
2023-03-17T03:21:58.764Z,44.99
2023-03-17T03:24:26.073Z,44.14
2023-03-17T03:26:52.478Z,43.90
2023-03-17T03:29:18.919Z,43.79
2023-03-17T03:31:46.210Z,44.28
2023-03-17T03:37:06.750Z,44.11
2023-03-17T03:39:34.056Z,43.63
2023-03-17T03:42:00.533Z,44.84
2023-03-17T03:44:27.039Z,43.92
2023-03-17T03:46:54.386Z,44.44
2023-03-17T03:52:05.067Z,43.74
2023-03-17T03:54:32.453Z,44.81
2023-03-17T03:56:58.947Z,43.91
2023-03-17T03:59:26.319Z,43.82
2023-03-17T04:01:53.758Z,44.25
2023-03-17T04:07:05.119Z,43.80
2023-03-17T04:09:31.580Z,43.77
2023-03-17T04:11:58.029Z,44.40
2023-03-17T04:14:25.413Z,44.92
2023-03-17T04:16:52.824Z,43.35
2023-03-17T04:19:20.331Z,43.81
2023-03-17T04:21:46.810Z,43.36
2023-03-17T04:24:13.282Z,44.04
2023-03-17T04:26:39.829Z,43.28
2023-03-17T04:29:06.305Z,43.94
2023-03-17T04:31:33.817Z,43.60
2023-03-17T04:34:00.316Z,43.42
2023-03-17T04:36:27.700Z,43.94
2023-03-17T04:38:55.103Z,43.78
2023-03-17T04:41:21.584Z,44.62
2023-03-17T04:43:49.011Z,43.90
2023-03-17T04:46:16.579Z,43.77
2023-03-17T04:48:43.151Z,43.56
2023-03-17T04:51:11.891Z,43.75
2023-03-17T04:53:38.484Z,43.46
2023-03-17T04:56:05.983Z,43.35
2023-03-17T04:58:32.449Z,43.62
2023-03-17T05:00:59.895Z,43.57
2023-03-17T05:03:28.174Z,44.50
2023-03-17T05:05:56.017Z,43.58
2023-03-17T05:08:22.507Z,43.62
2023-03-17T05:10:49.000Z,43.65
2023-03-17T05:13:16.430Z,43.83
2023-03-17T05:15:43.815Z,43.46
2023-03-17T05:18:10.264Z,43.50
2023-03-17T05:20:37.679Z,43.40
2023-03-17T05:23:04.144Z,43.40
2023-03-17T05:25:31.601Z,43.58
2023-03-17T05:27:58.070Z,44.21
2023-03-17T05:30:24.562Z,43.80
2023-03-17T05:32:51.127Z,44.35
2023-03-17T05:35:18.550Z,44.75
2023-03-17T05:40:39.243Z,44.04
2023-03-17T05:43:05.901Z,44.30
2023-03-17T05:45:33.328Z,44.24
2023-03-17T05:47:59.814Z,43.41
2023-03-17T05:50:26.338Z,43.78
2023-03-17T05:55:37.545Z,43.86
2023-03-17T05:58:04.963Z,43.84
2023-03-17T06:00:31.990Z,44.06
2023-03-17T06:02:58.627Z,43.95
2023-03-17T06:05:26.120Z,44.32
2023-03-17T06:10:36.892Z,43.42
2023-03-17T06:13:04.316Z,44.20
2023-03-17T06:15:31.173Z,43.84
2023-03-17T06:17:57.743Z,43.70
2023-03-17T06:20:24.248Z,43.64
2023-03-17T06:25:45.792Z,43.87
2023-03-17T06:28:12.292Z,43.93
2023-03-17T06:30:40.609Z,43.74
2023-03-17T06:33:07.438Z,43.66
2023-03-17T06:35:34.345Z,43.98
2023-03-17T06:40:47.251Z,43.98
2023-03-17T06:43:14.723Z,44.21
2023-03-17T06:45:41.234Z,43.82
2023-03-17T06:48:07.718Z,43.84
2023-03-17T06:50:34.209Z,43.82
2023-03-17T06:55:46.536Z,43.87
2023-03-17T06:58:13.002Z,43.53
2023-03-17T07:00:40.985Z,43.72
2023-03-17T07:03:07.458Z,43.42
2023-03-17T07:05:34.151Z,43.36
2023-03-17T07:10:57.490Z,43.28
2023-03-17T07:13:23.992Z,43.36
2023-03-17T07:15:52.830Z,43.42
2023-03-17T07:18:21.968Z,43.25
2023-03-17T07:20:49.539Z,42.99
2023-03-17T07:26:11.036Z,42.56
2023-03-17T07:28:38.819Z,43.30
2023-03-17T07:31:05.349Z,42.66
2023-03-17T07:33:31.874Z,42.99
2023-03-17T07:35:58.589Z,42.93
2023-03-17T07:41:09.183Z,43.02
2023-03-17T07:43:37.375Z,42.54
2023-03-17T07:46:06.221Z,42.18
2023-03-17T07:48:33.868Z,42.41
2023-03-17T07:51:00.403Z,42.20
2023-03-17T07:56:22.539Z,41.57
2023-03-17T07:58:49.915Z,41.05
2023-03-17T08:01:16.400Z,41.75
2023-03-17T08:03:43.040Z,39.97
2023-03-17T08:06:10.473Z,39.78
2023-03-17T08:11:21.856Z,36.34
2023-03-17T08:13:48.356Z,36.50
2023-03-17T08:16:15.850Z,36.20
2023-03-17T08:18:42.329Z,36.29
2023-03-17T08:21:08.917Z,36.06
2023-03-17T08:26:21.251Z,37.60
2023-03-17T08:28:48.621Z,36.91
2023-03-17T08:31:16.109Z,37.33
2023-03-17T08:33:43.573Z,38.18
2023-03-17T08:36:10.936Z,38.42
2023-03-17T08:41:32.257Z,38.89
2023-03-17T08:43:58.793Z,38.39
2023-03-17T08:46:26.259Z,38.92
2023-03-17T08:48:53.655Z,38.68
2023-03-17T08:51:24.270Z,39.54
2023-03-17T08:56:35.006Z,38.65
2023-03-17T08:59:02.400Z,38.29
2023-03-17T09:01:29.847Z,35.72
2023-03-17T09:03:56.348Z,35.78
2023-03-17T09:06:23.823Z,36.18
2023-03-17T09:08:50.278Z,37.07
2023-03-17T09:11:17.700Z,36.39
2023-03-17T09:13:44.265Z,35.18
2023-03-17T09:16:10.818Z,33.64
2023-03-17T09:18:38.256Z,32.25
2023-03-17T09:21:05.620Z,32.58
2023-03-17T09:23:32.165Z,34.07
2023-03-17T09:25:58.645Z,34.67
2023-03-17T09:28:25.123Z,36.23
2023-03-17T09:30:52.699Z,35.64
2023-03-17T09:33:19.230Z,36.01
2023-03-17T09:35:45.722Z,35.75
2023-03-17T09:38:13.043Z,35.96
2023-03-17T09:40:40.416Z,37.19
2023-03-17T09:43:06.828Z,36.19
2023-03-17T09:45:34.116Z,36.85
2023-03-17T09:48:01.354Z,37.02
2023-03-17T09:50:27.833Z,37.68
2023-03-17T09:52:55.278Z,38.07
2023-03-17T09:55:21.753Z,37.99
2023-03-17T09:57:48.200Z,37.52
2023-03-17T10:00:15.555Z,37.99
2023-03-17T10:02:42.053Z,36.77
2023-03-17T10:05:08.589Z,36.74
2023-03-17T10:07:35.954Z,36.06
2023-03-17T10:10:03.242Z,36.05
2023-03-17T10:12:29.725Z,36.52
2023-03-17T10:14:56.981Z,35.83
2023-03-17T10:17:23.460Z,36.36
2023-03-17T10:19:49.921Z,35.32
2023-03-17T10:22:16.378Z,36.37
2023-03-17T10:24:43.688Z,35.77
2023-03-17T10:29:56.711Z,35.33
2023-03-17T10:32:23.201Z,35.04
2023-03-17T10:34:50.647Z,35.11
2023-03-17T10:37:18.033Z,35.58
2023-03-17T10:39:44.524Z,35.05
2023-03-17T10:45:05.644Z,34.71
2023-03-17T10:47:33.995Z,34.87
2023-03-17T10:50:03.200Z,34.34
2023-03-17T10:52:29.628Z,34.64
2023-03-17T10:54:56.893Z,34.27
2023-03-17T11:00:10.923Z,34.16
2023-03-17T11:02:37.402Z,35.23
2023-03-17T11:05:04.672Z,34.35
2023-03-17T11:07:31.098Z,34.64
2023-03-17T11:09:57.458Z,34.24
2023-03-17T11:15:07.964Z,34.45
2023-03-17T11:17:37.077Z,34.67
2023-03-17T11:20:03.544Z,33.95
2023-03-17T11:22:29.924Z,34.49
2023-03-17T11:24:56.302Z,33.94
2023-03-17T11:30:16.419Z,33.51
2023-03-17T11:32:42.791Z,34.94
2023-03-17T11:35:10.011Z,33.75
2023-03-17T11:37:36.403Z,33.75
2023-03-17T11:40:02.753Z,34.07
2023-03-17T11:45:13.215Z,33.36
2023-03-17T11:47:39.544Z,33.64
2023-03-17T11:50:06.800Z,33.23
2023-03-17T11:52:33.142Z,33.56
2023-03-17T11:55:00.197Z,32.75
2023-03-17T12:00:11.222Z,32.53
2023-03-17T12:02:37.552Z,32.64
2023-03-17T12:05:04.983Z,32.53
2023-03-17T12:07:32.219Z,32.61
2023-03-17T12:09:58.555Z,32.17
2023-03-17T12:15:19.594Z,32.62
2023-03-17T12:17:46.856Z,32.63
2023-03-17T12:20:13.270Z,32.24
2023-03-17T12:22:39.643Z,32.53
2023-03-17T12:25:06.005Z,32.77
2023-03-17T12:30:26.145Z,33.36
2023-03-17T12:32:52.541Z,33.13
2023-03-17T12:35:19.779Z,33.47
2023-03-17T12:37:46.132Z,33.52
2023-03-17T12:40:12.491Z,33.89
2023-03-17T12:45:33.273Z,34.16
2023-03-17T12:47:59.668Z,33.95
2023-03-17T12:50:26.020Z,34.37
2023-03-17T12:52:52.580Z,34.25
2023-03-17T12:55:18.896Z,34.31
2023-03-17T13:00:29.059Z,34.84
2023-03-17T13:02:55.389Z,35.07
2023-03-17T13:05:21.764Z,34.74
2023-03-17T13:07:48.130Z,34.96
2023-03-17T13:10:14.534Z,35.16
2023-03-17T13:15:24.938Z,35.01
2023-03-17T13:17:51.274Z,35.40
2023-03-17T13:20:17.626Z,35.67
2023-03-17T13:22:44.000Z,35.67
2023-03-17T13:25:10.375Z,35.93
2023-03-17T13:27:36.729Z,35.47
2023-03-17T13:30:03.091Z,35.83
2023-03-17T13:32:29.496Z,36.10
2023-03-17T13:34:55.859Z,35.64
2023-03-17T13:37:22.407Z,36.17
2023-03-17T13:39:48.783Z,36.08
2023-03-17T13:42:18.591Z,35.71
2023-03-17T13:44:45.429Z,36.27
2023-03-17T13:47:12.649Z,36.13
2023-03-17T13:49:39.201Z,35.85
2023-03-17T13:52:05.583Z,36.29
2023-03-17T13:54:31.936Z,36.22
2023-03-17T13:56:58.262Z,35.81
2023-03-17T13:59:24.637Z,36.37
2023-03-17T14:01:50.981Z,36.24
2023-03-17T14:04:17.533Z,36.36
2023-03-17T14:06:43.880Z,36.31
2023-03-17T14:09:10.214Z,36.48
2023-03-17T14:11:36.620Z,36.60
2023-03-17T14:14:03.004Z,36.13
2023-03-17T14:16:29.437Z,36.60
2023-03-17T14:18:55.804Z,36.78
2023-03-17T14:21:22.153Z,36.26
2023-03-17T14:23:48.515Z,36.74
2023-03-17T14:26:14.909Z,36.44
2023-03-17T14:28:41.219Z,36.78
2023-03-17T14:31:07.556Z,36.46
2023-03-17T14:33:33.892Z,36.79
2023-03-17T14:36:00.303Z,36.74
2023-03-17T14:38:26.682Z,36.52
2023-03-17T14:40:53.017Z,36.48
2023-03-17T14:43:19.398Z,36.92
2023-03-17T14:48:29.598Z,36.62
2023-03-17T14:50:55.962Z,36.97
2023-03-17T14:53:22.361Z,36.59
2023-03-17T14:55:48.702Z,36.78
2023-03-17T14:58:15.949Z,37.07
2023-03-17T15:03:26.044Z,36.63
2023-03-17T15:05:52.440Z,36.54
2023-03-17T15:08:19.857Z,36.86
2023-03-17T15:10:46.240Z,36.94
2023-03-17T15:13:12.612Z,36.89
2023-03-17T15:18:32.945Z,37.01
2023-03-17T15:20:59.303Z,36.92
2023-03-17T15:23:25.661Z,37.09
2023-03-17T15:25:53.130Z,36.86
2023-03-17T15:28:19.490Z,36.87
2023-03-17T15:33:39.675Z,36.70
2023-03-17T15:36:06.827Z,36.92
2023-03-17T15:38:33.208Z,36.85
2023-03-17T15:40:59.572Z,36.84
2023-03-17T15:43:25.938Z,36.51
2023-03-17T15:48:36.395Z,36.70
2023-03-17T15:51:02.736Z,37.00
2023-03-17T15:53:29.123Z,36.93
2023-03-17T15:55:55.457Z,36.83
2023-03-17T15:58:21.787Z,36.80
2023-03-17T16:03:32.118Z,36.36
2023-03-17T16:05:58.497Z,36.89
2023-03-17T16:08:24.996Z,35.93
2023-03-17T16:10:52.300Z,35.80
2023-03-17T16:13:20.834Z,35.64
2023-03-17T16:18:33.532Z,35.88
2023-03-17T16:21:00.777Z,36.60
2023-03-17T16:23:27.156Z,35.77
2023-03-17T16:25:59.248Z,35.90
2023-03-17T16:28:31.125Z,36.08
2023-03-17T16:33:56.719Z,35.93
2023-03-17T16:36:23.989Z,35.82
2023-03-17T16:38:53.509Z,35.79
2023-03-17T16:41:21.776Z,35.98
2023-03-17T16:43:48.203Z,35.50
2023-03-17T16:49:09.414Z,36.07
2023-03-17T16:51:35.791Z,35.82
2023-03-17T16:54:02.254Z,36.02
2023-03-17T16:56:29.566Z,36.27
2023-03-17T16:58:56.018Z,35.91
2023-03-17T17:04:09.171Z,35.96
2023-03-17T17:06:35.602Z,36.51
2023-03-17T17:09:02.003Z,35.77
2023-03-17T17:11:28.399Z,36.14
2023-03-17T17:13:55.940Z,36.85
2023-03-17T17:19:07.204Z,37.26
2023-03-17T17:21:34.512Z,37.53
2023-03-17T17:24:02.977Z,37.47
2023-03-17T17:26:29.368Z,37.52
2023-03-17T17:28:57.664Z,37.03
2023-03-17T17:34:17.840Z,37.47
2023-03-17T17:36:44.377Z,38.25
2023-03-17T17:39:10.787Z,37.83
2023-03-17T17:41:37.446Z,38.31
2023-03-17T17:44:04.093Z,38.12
2023-03-17T17:49:15.120Z,38.07
2023-03-17T17:51:41.496Z,37.95
2023-03-17T17:54:08.831Z,37.75
2023-03-17T17:56:38.022Z,38.30
2023-03-17T17:59:04.434Z,37.92
2023-03-17T18:04:25.867Z,37.93
2023-03-17T18:06:52.337Z,38.45
2023-03-17T18:09:18.737Z,37.88
2023-03-17T18:11:45.101Z,38.47
2023-03-17T18:14:12.343Z,38.14
2023-03-17T18:19:33.693Z,38.20
2023-03-17T18:22:00.141Z,38.34
2023-03-17T18:24:26.509Z,38.11
2023-03-17T18:26:52.908Z,38.37
2023-03-17T18:29:19.329Z,37.94
2023-03-17T18:34:40.473Z,37.83
2023-03-17T18:37:06.901Z,38.19
2023-03-17T18:39:33.292Z,38.07
2023-03-17T18:41:59.795Z,38.39
2023-03-17T18:44:26.221Z,38.59
2023-03-17T18:49:38.531Z,38.15
2023-03-17T18:52:07.723Z,38.36
2023-03-17T18:54:34.677Z,38.00
2023-03-17T18:57:01.110Z,38.32
2023-03-17T18:59:29.394Z,38.16
2023-03-17T19:04:52.414Z,38.17
2023-03-17T19:07:18.753Z,38.22
2023-03-17T19:09:45.178Z,38.48
2023-03-17T19:12:13.462Z,37.95
2023-03-17T19:14:42.644Z,38.32
2023-03-17T19:20:03.150Z,38.59
2023-03-17T19:22:30.608Z,39.89
2023-03-17T19:24:59.790Z,40.55
2023-03-17T19:27:29.045Z,39.15
2023-03-17T19:29:56.309Z,40.30
2023-03-17T19:35:09.361Z,40.68
2023-03-17T19:37:35.814Z,40.32
2023-03-17T19:40:05.097Z,39.99
2023-03-17T19:42:34.362Z,40.88
2023-03-17T19:45:00.840Z,40.65
2023-03-17T19:50:14.048Z,40.25
2023-03-17T19:52:40.386Z,40.88
2023-03-17T19:55:08.310Z,40.71
2023-03-17T19:57:34.845Z,41.09
2023-03-17T20:00:03.125Z,41.50
2023-03-17T20:02:30.431Z,40.91
2023-03-17T20:04:56.875Z,40.51
2023-03-17T20:07:25.177Z,40.87
2023-03-17T20:09:53.491Z,41.46
2023-03-17T20:12:21.797Z,42.02
2023-03-17T20:14:48.271Z,42.17
2023-03-17T20:17:16.894Z,41.91
2023-03-17T20:19:43.417Z,42.44
2023-03-17T20:22:09.882Z,41.66
2023-03-17T20:24:38.241Z,42.66
2023-03-17T20:27:04.714Z,42.09
2023-03-17T20:29:31.287Z,42.27
2023-03-17T20:32:00.597Z,42.67
2023-03-17T20:34:26.945Z,42.97
2023-03-17T20:36:53.410Z,42.46
2023-03-17T20:39:21.731Z,42.48
2023-03-17T20:41:48.181Z,41.21
2023-03-17T20:44:16.509Z,41.17
2023-03-17T20:46:42.996Z,40.88
2023-03-17T20:49:12.183Z,41.74
2023-03-17T20:51:38.618Z,41.25
2023-03-17T20:54:05.124Z,41.15
2023-03-17T20:56:34.499Z,40.98
2023-03-17T20:59:03.686Z,40.87
2023-03-17T21:01:32.901Z,41.01
2023-03-17T21:04:01.209Z,40.67
2023-03-17T21:06:27.703Z,41.06
2023-03-17T21:08:54.087Z,40.69
2023-03-17T21:11:22.371Z,41.14
2023-03-17T21:13:50.709Z,40.73
2023-03-17T21:16:18.019Z,40.92
2023-03-17T21:18:45.264Z,40.49
2023-03-17T21:21:11.695Z,40.41
2023-03-17T21:23:38.054Z,41.57
2023-03-17T21:26:06.566Z,40.72
2023-03-17T21:28:32.996Z,41.30
2023-03-17T21:30:59.406Z,40.79
2023-03-17T21:33:25.836Z,40.42
2023-03-17T21:38:36.042Z,40.41
2023-03-17T21:41:05.233Z,41.26
2023-03-17T21:43:32.493Z,40.55
2023-03-17T21:45:58.884Z,40.91
2023-03-17T21:48:26.150Z,40.68
2023-03-17T21:53:36.688Z,39.79
2023-03-17T21:56:03.033Z,40.84
2023-03-17T21:58:30.402Z,40.90
2023-03-17T22:00:56.889Z,40.26
2023-03-17T22:03:23.334Z,39.69
2023-03-17T22:08:45.293Z,40.71
2023-03-17T22:11:13.779Z,39.71
2023-03-17T22:13:40.187Z,41.17
2023-03-17T22:16:06.625Z,40.70
2023-03-17T22:18:33.086Z,40.43
2023-03-17T22:23:46.070Z,41.12
2023-03-17T22:26:12.559Z,40.07
2023-03-17T22:28:39.162Z,39.60
2023-03-17T22:31:06.390Z,40.32
2023-03-17T22:33:33.627Z,40.43
2023-03-17T22:38:54.299Z,39.70
2023-03-17T22:41:20.711Z,39.38
2023-03-17T22:43:47.973Z,40.83
2023-03-17T22:46:15.252Z,39.36
2023-03-17T22:48:41.622Z,39.22
2023-03-17T22:54:02.205Z,39.19
2023-03-17T22:56:29.600Z,38.92
2023-03-17T22:58:56.935Z,38.56
2023-03-17T23:01:24.227Z,38.22
2023-03-17T23:03:51.560Z,38.05
2023-03-17T23:09:04.179Z,37.84
2023-03-17T23:11:30.654Z,38.34
2023-03-17T23:14:00.603Z,38.16
2023-03-17T23:16:27.895Z,38.69
2023-03-17T23:18:54.494Z,38.62
2023-03-17T23:24:06.929Z,38.31
2023-03-17T23:26:33.351Z,38.93
2023-03-17T23:28:59.947Z,38.95
2023-03-17T23:31:28.228Z,38.35
2023-03-17T23:33:54.673Z,38.75
2023-03-17T23:39:18.060Z,37.80
2023-03-17T23:41:44.411Z,38.63
2023-03-17T23:44:11.674Z,38.16
2023-03-17T23:46:38.116Z,38.26
2023-03-17T23:49:04.531Z,39.45
2023-03-17T23:54:15.580Z,38.37
2023-03-17T23:56:42.837Z,38.44
2023-03-17T23:59:10.091Z,38.34
